Time;durP1;ratioP1;P1;durP2;ratioP2;P2;SDS_P1;SDS_P2;PMS_P1;PMS_P2;Temp;Humidity;BMP_temperature;BMP_pressure;BME280_temperature;BME280_humidity;BME280_pressure;Samples;Min_cycle;Max_cycle;Signal;HPM_P1;HPM_P2
2023/06/05 00:02:24;;;;;;;4.57;3.20;;;;;;;;;;5022922;28;20042;-78
2023/06/05 00:04:50;;;;;;;3.30;2.75;;;;;;;;;;5023493;28;20037;-78
2023/06/05 00:07:16;;;;;;;3.72;2.83;;;;;;;;;;5021741;28;20467;-79
2023/06/05 00:09:42;;;;;;;3.83;2.80;;;;;;;;;;5019782;28;20071;-78
2023/06/05 00:12:09;;;;;;;4.13;2.75;;;;;;;;;;5007917;28;20172;-78
2023/06/05 00:14:35;;;;;;;3.97;2.78;;;;;;;;;;5019964;28;20046;-78
2023/06/05 00:17:01;;;;;;;4.03;3.08;;;;;;;;;;5024251;28;20400;-78
2023/06/05 00:19:27;;;;;;;5.45;2.78;;;;;;;;;;5019180;28;20583;-79
2023/06/05 00:21:54;;;;;;;3.72;2.50;;;;;;;;;;5024933;28;20077;-78
2023/06/05 00:24:20;;;;;;;3.90;2.63;;;;;;;;;;5019556;28;20054;-78
2023/06/05 00:26:47;;;;;;;4.05;2.80;;;;;;;;;;5018912;28;20136;-78
2023/06/05 00:29:13;;;;;;;3.50;2.72;;;;;;;;;;5022145;28;20080;-78
2023/06/05 00:31:39;;;;;;;3.95;2.78;;;;;;;;;;5018261;28;20038;-78
2023/06/05 00:34:05;;;;;;;4.25;2.80;;;;;;;;;;5019643;28;20034;-78
2023/06/05 00:36:32;;;;;;;3.45;2.47;;;;;;;;;;5024129;28;20080;-78
2023/06/05 00:38:58;;;;;;;3.45;2.80;;;;;;;;;;5027745;28;20376;-78
2023/06/05 00:41:24;;;;;;;5.07;2.95;;;;;;;;;;5021746;28;20038;-78
2023/06/05 00:43:50;;;;;;;3.70;2.67;;;;;;;;;;5029811;28;20034;-78
2023/06/05 00:46:16;;;;;;;3.63;2.70;;;;;;;;;;5022608;28;20057;-78
2023/06/05 00:48:43;;;;;;;3.60;2.78;;;;;;;;;;5025201;28;20069;-78
2023/06/05 00:51:14;;;;;;;4.00;3.10;;;;;;;;;;5025630;28;20483;-78
2023/06/05 00:53:40;;;;;;;5.03;3.10;;;;;;;;;;5025860;28;20038;-78
2023/06/05 00:56:06;;;;;;;3.80;2.90;;;;;;;;;;5028036;28;20053;-78
2023/06/05 00:58:32;;;;;;;4.15;3.10;;;;;;;;;;5021583;28;20050;-78
2023/06/05 01:00:58;;;;;;;4.25;3.10;;;;;;;;;;5026474;28;20037;-78
2023/06/05 01:03:29;;;;;;;4.82;3.40;;;;;;;;;;5030266;28;20046;-78
2023/06/05 01:06:02;;;;;;;5.43;3.40;;;;;;;;;;5024747;28;20116;-78
2023/06/05 01:08:29;;;;;;;5.30;3.50;;;;;;;;;;5026860;28;20049;-78
2023/06/05 01:10:57;;;;;;;4.60;3.38;;;;;;;;;;5021861;28;20085;-78
2023/06/05 01:13:27;;;;;;;5.40;3.33;;;;;;;;;;5028370;28;20107;-78
2023/06/05 01:15:54;;;;;;;4.07;3.35;;;;;;;;;;5019788;28;20156;-78
2023/06/05 01:18:23;;;;;;;5.03;3.85;;;;;;;;;;5025471;28;20120;-78
2023/06/05 01:20:49;;;;;;;4.47;3.60;;;;;;;;;;5023556;28;20046;-78
2023/06/05 01:23:15;;;;;;;6.22;4.28;;;;;;;;;;5022458;28;20053;-78
2023/06/05 01:25:41;;;;;;;6.05;4.28;;;;;;;;;;5019491;28;20038;-78
2023/06/05 01:28:16;;;;;;;4.75;3.90;;;;;;;;;;5018742;28;20041;-78
2023/06/05 01:30:52;;;;;;;5.53;4.28;;;;;;;;;;5028038;28;20038;-78
2023/06/05 01:33:31;;;;;;;6.63;5.00;;;;;;;;;;5028968;28;20487;-78
2023/06/05 01:36:04;;;;;;;6.13;4.60;;;;;;;;;;5025084;28;20038;-78
2023/06/05 01:38:30;;;;;;;7.85;5.55;;;;;;;;;;5025271;28;20073;-78
2023/06/05 01:40:57;;;;;;;8.05;6.15;;;;;;;;;;5026857;28;20137;-78
2023/06/05 01:43:23;;;;;;;7.70;5.80;;;;;;;;;;5023011;28;20037;-78
2023/06/05 01:45:50;;;;;;;7.45;5.93;;;;;;;;;;5033016;28;22465;-78
2023/06/05 01:48:16;;;;;;;6.40;5.53;;;;;;;;;;5021491;28;20458;-78
2023/06/05 01:50:43;;;;;;;6.53;5.72;;;;;;;;;;5019716;28;20092;-78
2023/06/05 01:53:11;;;;;;;8.45;5.63;;;;;;;;;;5027978;28;20096;-78
2023/06/05 01:55:38;;;;;;;7.15;4.78;;;;;;;;;;5007447;28;20046;-78
2023/06/05 01:58:05;;;;;;;5.38;4.63;;;;;;;;;;5024073;28;20046;-78
2023/06/05 02:00:31;;;;;;;6.82;4.95;;;;;;;;;;5020254;28;20040;-78
2023/06/05 02:02:57;;;;;;;6.63;5.20;;;;;;;;;;5024791;28;20049;-78
2023/06/05 02:05:24;;;;;;;7.05;4.57;;;;;;;;;;5026729;28;20046;-78
2023/06/05 02:07:53;;;;;;;6.07;4.30;;;;;;;;;;5027523;28;20038;-78
2023/06/05 02:10:20;;;;;;;5.18;4.15;;;;;;;;;;5026201;28;20056;-78
2023/06/05 02:12:47;;;;;;;5.97;4.63;;;;;;;;;;5026393;28;20041;-78
2023/06/05 02:15:14;;;;;;;6.20;4.60;;;;;;;;;;5022953;28;20042;-78
2023/06/05 02:17:50;;;;;;;5.85;4.60;;;;;;;;;;5028462;28;20120;-78
2023/06/05 02:20:16;;;;;;;6.10;4.30;;;;;;;;;;5023679;28;20598;-78
2023/06/05 02:22:44;;;;;;;6.68;4.70;;;;;;;;;;5025070;28;20038;-78
2023/06/05 02:25:10;;;;;;;4.95;4.00;;;;;;;;;;5018038;28;20057;-78
2023/06/05 02:27:37;;;;;;;5.80;4.13;;;;;;;;;;5028009;28;20049;-78
2023/06/05 02:30:03;;;;;;;4.45;3.80;;;;;;;;;;5023057;28;20123;-78
2023/06/05 02:32:31;;;;;;;4.43;3.60;;;;;;;;;;5023473;28;20443;-78
2023/06/05 02:34:57;;;;;;;4.78;3.45;;;;;;;;;;5028200;28;20081;-78
2023/06/05 02:37:24;;;;;;;4.82;3.08;;;;;;;;;;5024444;28;20041;-78
2023/06/05 02:39:50;;;;;;;4.63;3.38;;;;;;;;;;5022108;28;20045;-78
2023/06/05 02:42:18;;;;;;;4.53;3.03;;;;;;;;;;5023015;28;20049;-78
2023/06/05 02:44:44;;;;;;;4.63;3.05;;;;;;;;;;5024181;28;20042;-78
2023/06/05 02:47:10;;;;;;;6.97;3.33;;;;;;;;;;5008782;28;20045;-78
2023/06/05 02:49:37;;;;;;;3.90;3.13;;;;;;;;;;5024129;28;20049;-77
2023/06/05 02:52:03;;;;;;;4.65;3.20;;;;;;;;;;5023149;28;20050;-78
2023/06/05 02:54:29;;;;;;;4.18;3.35;;;;;;;;;;5012389;28;20190;-78
2023/06/05 02:56:56;;;;;;;4.95;3.40;;;;;;;;;;5022663;28;20046;-78
2023/06/05 02:59:25;;;;;;;4.25;3.38;;;;;;;;;;5019983;28;20046;-78
2023/06/05 03:01:52;;;;;;;5.25;3.50;;;;;;;;;;5018899;28;20034;-78
2023/06/05 03:04:20;;;;;;;4.65;3.50;;;;;;;;;;5016868;28;20046;-78
2023/06/05 03:06:50;;;;;;;4.53;3.42;;;;;;;;;;5019045;28;20128;-78
2023/06/05 03:09:16;;;;;;;5.15;3.17;;;;;;;;;;5024877;28;20053;-78
2023/06/05 03:11:42;;;;;;;4.88;3.40;;;;;;;;;;5025513;28;20045;-78
2023/06/05 03:14:08;;;;;;;5.65;3.53;;;;;;;;;;5020455;28;20054;-79
2023/06/05 03:16:41;;;;;;;3.83;3.10;;;;;;;;;;5026626;28;20131;-78
2023/06/05 03:19:07;;;;;;;3.60;3.13;;;;;;;;;;5019554;28;20108;-78
2023/06/05 03:21:33;;;;;;;5.60;3.33;;;;;;;;;;5020884;28;20087;-78
2023/06/05 03:24:00;;;;;;;3.88;2.97;;;;;;;;;;5023211;28;20224;-78
2023/06/05 03:26:26;;;;;;;4.20;3.13;;;;;;;;;;5022685;28;20068;-77
2023/06/05 03:28:53;;;;;;;4.10;2.85;;;;;;;;;;5025674;28;20046;-78
2023/06/05 03:31:19;;;;;;;4.40;3.03;;;;;;;;;;5022848;28;20053;-78
2023/06/05 03:33:45;;;;;;;3.50;2.90;;;;;;;;;;5025839;28;20056;-78
2023/06/05 03:36:11;;;;;;;3.72;3.05;;;;;;;;;;5019992;28;20044;-78
2023/06/05 03:38:37;;;;;;;4.63;3.15;;;;;;;;;;5027565;28;20049;-78
2023/06/05 03:41:03;;;;;;;4.35;3.35;;;;;;;;;;5013852;28;20081;-78
2023/06/05 03:43:30;;;;;;;4.38;2.65;;;;;;;;;;5033316;28;20125;-78
2023/06/05 03:45:56;;;;;;;4.10;3.38;;;;;;;;;;5033437;28;20054;-78
2023/06/05 03:48:22;;;;;;;3.92;3.20;;;;;;;;;;5030886;28;20060;-78
2023/06/05 03:50:53;;;;;;;3.78;2.78;;;;;;;;;;5030979;28;20049;-78
2023/06/05 03:53:19;;;;;;;4.90;2.88;;;;;;;;;;5033562;28;20049;-78
2023/06/05 03:55:46;;;;;;;3.88;2.80;;;;;;;;;;5018887;28;20046;-78
2023/06/05 03:58:16;;;;;;;3.35;2.78;;;;;;;;;;5013447;28;20125;-78
2023/06/05 04:00:42;;;;;;;5.60;3.00;;;;;;;;;;5014274;28;20117;-78
2023/06/05 04:03:10;;;;;;;4.35;3.22;;;;;;;;;;5016514;28;20041;-78
2023/06/05 04:05:37;;;;;;;3.90;3.10;;;;;;;;;;5035568;28;20584;-78
2023/06/05 04:08:03;;;;;;;3.80;3.08;;;;;;;;;;5026831;28;20059;-78
2023/06/05 04:10:29;;;;;;;3.97;2.80;;;;;;;;;;5027043;28;20107;-78
2023/06/05 04:12:55;;;;;;;4.65;2.90;;;;;;;;;;5015729;28;20116;-78
2023/06/05 04:15:25;;;;;;;4.68;3.03;;;;;;;;;;5013434;28;20048;-78
2023/06/05 04:17:52;;;;;;;3.85;3.03;;;;;;;;;;5021361;28;20033;-78
2023/06/05 04:20:18;;;;;;;4.72;3.33;;;;;;;;;;5038217;28;20187;-78
2023/06/05 04:22:45;;;;;;;5.05;3.45;;;;;;;;;;5014517;28;20053;-78
2023/06/05 04:25:12;;;;;;;3.92;2.92;;;;;;;;;;5042000;28;20049;-78
2023/06/05 04:27:42;;;;;;;3.53;2.80;;;;;;;;;;5021643;28;20388;-78
2023/06/05 04:30:09;;;;;;;3.95;3.10;;;;;;;;;;5033062;28;20037;-78
2023/06/05 04:32:39;;;;;;;4.78;3.22;;;;;;;;;;5033046;28;20482;-78
2023/06/05 04:35:06;;;;;;;4.15;3.30;;;;;;;;;;5032696;28;20392;-78
2023/06/05 04:37:32;;;;;;;5.53;3.80;;;;;;;;;;5019218;28;20554;-78
2023/06/05 04:40:09;;;;;;;4.90;3.58;;;;;;;;;;5013352;28;20042;-78
2023/06/05 04:42:39;;;;;;;4.55;3.50;;;;;;;;;;5033144;28;20194;-78
2023/06/05 04:45:07;;;;;;;4.63;3.30;;;;;;;;;;5024080;28;20038;-78
2023/06/05 04:47:34;;;;;;;4.30;3.70;;;;;;;;;;5026842;28;20049;-78
2023/06/05 04:50:03;;;;;;;5.90;4.15;;;;;;;;;;5037842;28;20048;-78
2023/06/05 04:52:29;;;;;;;6.45;3.67;;;;;;;;;;5033006;28;20088;-78
2023/06/05 04:54:55;;;;;;;6.40;4.03;;;;;;;;;;5031428;28;20057;-78
2023/06/05 04:57:24;;;;;;;6.53;3.83;;;;;;;;;;5031431;28;20128;-78
2023/06/05 04:59:50;;;;;;;5.05;3.63;;;;;;;;;;5023334;28;20048;-78
2023/06/05 05:02:17;;;;;;;5.97;3.55;;;;;;;;;;5019797;28;20045;-78
2023/06/05 05:04:43;;;;;;;4.35;3.88;;;;;;;;;;5022794;28;20120;-78
2023/06/05 05:07:14;;;;;;;5.47;3.30;;;;;;;;;;5029207;28;20049;-78
2023/06/05 05:09:40;;;;;;;5.95;4.38;;;;;;;;;;5024056;28;20050;-78
2023/06/05 05:12:07;;;;;;;6.38;3.85;;;;;;;;;;5023052;28;20175;-78
2023/06/05 05:14:33;;;;;;;4.85;3.58;;;;;;;;;;5016627;28;20049;-78
2023/06/05 05:17:01;;;;;;;6.72;4.28;;;;;;;;;;5017872;28;20175;-78
2023/06/05 05:19:27;;;;;;;5.35;3.95;;;;;;;;;;5017275;28;20053;-78
2023/06/05 05:21:53;;;;;;;6.78;4.30;;;;;;;;;;5018726;28;20054;-79
2023/06/05 05:24:19;;;;;;;5.85;4.18;;;;;;;;;;5024862;28;20049;-79
2023/06/05 05:26:46;;;;;;;5.78;3.95;;;;;;;;;;5026212;28;20045;-80
2023/06/05 05:29:12;;;;;;;6.57;4.05;;;;;;;;;;5028735;28;20049;-79
2023/06/05 05:31:38;;;;;;;7.53;4.53;;;;;;;;;;5024059;28;20125;-79
2023/06/05 05:34:05;;;;;;;6.68;4.50;;;;;;;;;;5021008;28;20050;-79
2023/06/05 05:36:33;;;;;;;6.38;4.50;;;;;;;;;;5020666;28;20092;-79
2023/06/05 05:38:59;;;;;;;6.05;4.20;;;;;;;;;;5028426;28;20042;-79
2023/06/05 05:41:26;;;;;;;6.18;4.70;;;;;;;;;;5041217;28;20038;-79
2023/06/05 05:43:52;;;;;;;6.55;4.80;;;;;;;;;;5020391;28;20125;-79
2023/06/05 05:46:18;;;;;;;8.13;5.20;;;;;;;;;;5018928;28;20056;-79
2023/06/05 05:48:44;;;;;;;8.32;5.45;;;;;;;;;;5037304;28;20056;-78
2023/06/05 05:51:10;;;;;;;8.60;5.30;;;;;;;;;;5041790;28;20120;-78
2023/06/05 05:53:36;;;;;;;8.10;5.18;;;;;;;;;;5027468;28;20050;-78
2023/06/05 05:56:03;;;;;;;6.95;5.00;;;;;;;;;;5021449;28;20084;-78
2023/06/05 05:58:29;;;;;;;7.78;4.65;;;;;;;;;;5030962;28;20120;-79
2023/06/05 06:00:55;;;;;;;6.13;4.57;;;;;;;;;;5041194;28;20080;-78
2023/06/05 06:03:23;;;;;;;7.10;5.07;;;;;;;;;;5022391;28;20041;-78
2023/06/05 06:05:49;;;;;;;5.55;4.60;;;;;;;;;;5018434;28;20050;-78
2023/06/05 06:08:15;;;;;;;7.72;4.45;;;;;;;;;;5026447;28;20052;-78
2023/06/05 06:10:43;;;;;;;6.97;4.78;;;;;;;;;;5028165;28;20057;-78
2023/06/05 06:13:10;;;;;;;5.15;3.72;;;;;;;;;;5015324;28;20054;-78
2023/06/05 06:15:38;;;;;;;7.63;4.30;;;;;;;;;;5032629;28;20056;-78
2023/06/05 06:18:05;;;;;;;7.10;4.22;;;;;;;;;;5033706;28;20049;-78
2023/06/05 06:20:33;;;;;;;6.45;4.22;;;;;;;;;;5035577;28;20052;-78
2023/06/05 06:22:59;;;;;;;7.28;4.28;;;;;;;;;;5035565;28;20054;-78
2023/06/05 06:25:28;;;;;;;6.65;4.50;;;;;;;;;;5017013;28;20121;-78
2023/06/05 06:27:54;;;;;;;5.22;4.07;;;;;;;;;;5030715;28;20041;-78
2023/06/05 06:30:21;;;;;;;6.38;4.38;;;;;;;;;;5017301;28;20042;-78
2023/06/05 06:32:47;;;;;;;6.55;3.97;;;;;;;;;;5025116;28;20053;-78
2023/06/05 06:35:16;;;;;;;5.68;3.78;;;;;;;;;;5028202;28;20046;-78
2023/06/05 06:37:42;;;;;;;4.35;3.75;;;;;;;;;;5025018;28;20069;-78
2023/06/05 06:40:09;;;;;;;4.93;3.70;;;;;;;;;;5031142;28;20435;-78
2023/06/05 06:42:35;;;;;;;5.07;3.67;;;;;;;;;;5026943;28;20042;-78
2023/06/05 06:45:01;;;;;;;4.50;3.83;;;;;;;;;;5023198;28;20441;-78
2023/06/05 06:47:27;;;;;;;7.60;4.30;;;;;;;;;;5024187;28;20491;-78
2023/06/05 06:49:54;;;;;;;6.40;4.10;;;;;;;;;;5024265;28;20550;-78
2023/06/05 06:52:21;;;;;;;6.88;4.00;;;;;;;;;;5022160;28;20395;-78
2023/06/05 06:54:47;;;;;;;5.75;3.80;;;;;;;;;;5027399;28;20480;-80
2023/06/05 06:57:13;;;;;;;5.32;4.03;;;;;;;;;;5027166;28;20124;-78
2023/06/05 06:59:40;;;;;;;5.20;3.90;;;;;;;;;;5034170;28;20080;-78
2023/06/05 07:02:13;;;;;;;7.07;4.35;;;;;;;;;;5057726;28;20152;-80
2023/06/05 07:04:43;;;;;;;6.05;4.32;;;;;;;;;;5024589;28;20041;-78
2023/06/05 07:07:14;;;;;;;6.13;4.47;;;;;;;;;;5015040;28;20108;-78
2023/06/05 07:09:43;;;;;;;7.00;4.60;;;;;;;;;;5036603;28;20377;-78
2023/06/05 07:12:10;;;;;;;5.70;4.20;;;;;;;;;;5055626;28;20092;-78
2023/06/05 07:14:37;;;;;;;5.78;4.10;;;;;;;;;;5055618;28;20052;-78
2023/06/05 07:17:03;;;;;;;6.50;4.63;;;;;;;;;;5055413;28;20128;-78
2023/06/05 07:19:30;;;;;;;6.18;4.40;;;;;;;;;;5054743;28;20087;-80
2023/06/05 07:21:57;;;;;;;6.25;4.75;;;;;;;;;;5035848;28;20476;-79
2023/06/05 07:24:28;;;;;;;5.82;4.00;;;;;;;;;;5049086;28;20143;-79
2023/06/05 07:26:55;;;;;;;6.05;4.07;;;;;;;;;;5037833;28;20061;-79
2023/06/05 07:29:23;;;;;;;6.00;4.32;;;;;;;;;;5022778;28;20045;-79
2023/06/05 07:31:50;;;;;;;6.93;4.50;;;;;;;;;;5019401;28;20582;-81
2023/06/05 07:34:17;;;;;;;7.32;4.55;;;;;;;;;;5037683;28;20069;-79
2023/06/05 07:36:45;;;;;;;5.88;4.32;;;;;;;;;;5030391;28;20096;-79
2023/06/05 07:39:11;;;;;;;6.15;4.03;;;;;;;;;;5058458;28;20041;-79
2023/06/05 07:41:39;;;;;;;5.10;3.85;;;;;;;;;;5047781;28;20045;-79
2023/06/05 07:44:05;;;;;;;7.32;4.72;;;;;;;;;;5038286;28;20049;-79
2023/06/05 07:46:31;;;;;;;7.55;5.00;;;;;;;;;;5032473;28;20037;-81
2023/06/05 07:48:58;;;;;;;5.25;4.35;;;;;;;;;;5036802;28;20045;-80
2023/06/05 07:51:25;;;;;;;4.88;4.00;;;;;;;;;;5021762;28;20127;-79
2023/06/05 07:53:51;;;;;;;5.43;4.00;;;;;;;;;;5021019;28;20419;-81
2023/06/05 07:56:17;;;;;;;4.97;3.63;;;;;;;;;;5035560;28;20041;-80
2023/06/05 07:58:43;;;;;;;4.95;3.70;;;;;;;;;;5035642;28;20038;-79
2023/06/05 08:01:15;;;;;;;6.20;4.13;;;;;;;;;;5026730;28;20090;-79
2023/06/05 08:03:43;;;;;;;5.20;4.00;;;;;;;;;;5035128;28;20117;-79
2023/06/05 08:06:09;;;;;;;5.55;3.38;;;;;;;;;;5037818;28;20053;-78
2023/06/05 08:08:35;;;;;;;5.47;3.88;;;;;;;;;;5025453;28;20444;-78
2023/06/05 08:11:01;;;;;;;4.97;3.78;;;;;;;;;;5014124;28;20139;-78
2023/06/05 08:13:27;;;;;;;4.97;3.53;;;;;;;;;;5018989;28;20131;-79
2023/06/05 08:15:54;;;;;;;9.68;4.45;;;;;;;;;;5026775;28;20073;-79
2023/06/05 08:18:21;;;;;;;6.45;4.40;;;;;;;;;;5017011;28;20038;-78
2023/06/05 08:20:47;;;;;;;6.45;4.10;;;;;;;;;;5016735;28;20054;-78
2023/06/05 08:23:14;;;;;;;5.65;4.25;;;;;;;;;;5020834;28;20102;-78
2023/06/05 08:25:40;;;;;;;6.18;4.38;;;;;;;;;;5019720;28;20049;-78
2023/06/05 08:28:06;;;;;;;6.25;4.22;;;;;;;;;;5016312;28;20060;-78
2023/06/05 08:30:32;;;;;;;6.60;4.30;;;;;;;;;;5048500;28;20057;-79
2023/06/05 08:32:58;;;;;;;5.55;4.28;;;;;;;;;;5054144;28;20052;-79
2023/06/05 08:35:24;;;;;;;6.78;4.78;;;;;;;;;;5044204;28;20052;-79
2023/06/05 08:37:50;;;;;;;4.32;3.60;;;;;;;;;;5046853;28;20128;-79
2023/06/05 08:40:18;;;;;;;5.72;3.83;;;;;;;;;;5037693;28;20102;-79
2023/06/05 08:42:45;;;;;;;6.63;3.88;;;;;;;;;;5035850;28;20053;-79
2023/06/05 08:45:11;;;;;;;6.30;3.60;;;;;;;;;;5033550;28;20148;-79
2023/06/05 08:47:38;;;;;;;5.72;3.75;;;;;;;;;;5027350;28;20546;-79
2023/06/05 08:50:06;;;;;;;6.05;3.55;;;;;;;;;;5052645;28;20512;-79
2023/06/05 08:52:37;;;;;;;6.03;3.97;;;;;;;;;;5062664;28;20047;-79
2023/06/05 08:55:04;;;;;;;5.85;4.13;;;;;;;;;;5061352;28;20063;-79
2023/06/05 08:57:31;;;;;;;6.85;3.97;;;;;;;;;;5064808;28;20075;-80
2023/06/05 08:59:58;;;;;;;5.28;3.65;;;;;;;;;;5032412;28;20080;-81
2023/06/05 09:02:24;;;;;;;9.10;3.90;;;;;;;;;;5028534;28;20038;-82
2023/06/05 09:04:51;;;;;;;5.82;4.25;;;;;;;;;;5037942;28;20093;-83
2023/06/05 09:07:17;;;;;;;6.50;4.50;;;;;;;;;;5042874;28;20060;-82
2023/06/05 09:09:43;;;;;;;5.40;3.95;;;;;;;;;;5025374;28;20527;-82
2023/06/05 09:12:10;;;;;;;6.68;3.95;;;;;;;;;;5023594;28;20049;-82
2023/06/05 09:14:36;;;;;;;4.47;3.30;;;;;;;;;;5024050;28;20061;-82
2023/06/05 09:17:02;;;;;;;6.15;3.80;;;;;;;;;;5047069;28;20041;-80
2023/06/05 09:19:38;;;;;;;5.35;3.72;;;;;;;;;;5038269;28;20053;-80
2023/06/05 09:22:06;;;;;;;7.68;4.07;;;;;;;;;;5029582;28;20056;-82
2023/06/05 09:24:32;;;;;;;7.07;3.50;;;;;;;;;;5056829;28;20105;-79
2023/06/05 09:27:06;;;;;;;4.70;3.78;;;;;;;;;;5054763;28;20060;-82
2023/06/05 09:29:32;;;;;;;4.07;3.03;;;;;;;;;;5035432;28;20120;-82
2023/06/05 09:32:02;;;;;;;3.85;3.30;;;;;;;;;;5013724;28;20050;-79
2023/06/05 09:34:29;;;;;;;4.95;3.88;;;;;;;;;;5036678;28;20068;-82
2023/06/05 09:36:57;;;;;;;6.47;3.60;;;;;;;;;;5037661;28;20060;-80
2023/06/05 09:39:26;;;;;;;4.38;3.55;;;;;;;;;;5034589;28;20042;-80
2023/06/05 09:41:53;;;;;;;4.70;3.40;;;;;;;;;;5036073;28;20409;-81
2023/06/05 09:44:19;;;;;;;5.28;3.60;;;;;;;;;;5041795;28;20052;-79
2023/06/05 09:46:55;;;;;;;4.13;3.35;;;;;;;;;;5041179;28;20037;-80
2023/06/05 09:49:22;;;;;;;5.65;4.05;;;;;;;;;;5024080;28;20045;-80
2023/06/05 09:51:48;;;;;;;4.30;3.60;;;;;;;;;;5022468;28;20046;-79
2023/06/05 09:54:14;;;;;;;4.57;3.38;;;;;;;;;;5027181;28;20500;-79
2023/06/05 09:56:41;;;;;;;4.82;3.50;;;;;;;;;;5025444;28;20046;-79
2023/06/05 09:59:09;;;;;;;4.45;3.30;;;;;;;;;;5026203;28;20073;-79
2023/06/05 10:01:41;;;;;;;3.95;3.15;;;;;;;;;;5028034;28;20054;-79
2023/06/05 10:04:09;;;;;;;4.18;3.17;;;;;;;;;;5030087;28;20060;-79
2023/06/05 10:06:36;;;;;;;4.85;3.85;;;;;;;;;;5063738;28;20052;-79
2023/06/05 10:09:03;;;;;;;4.47;3.40;;;;;;;;;;5048203;28;20097;-79
2023/06/05 10:11:29;;;;;;;6.80;3.60;;;;;;;;;;5056927;28;20056;-80
2023/06/05 10:13:58;;;;;;;4.38;3.58;;;;;;;;;;5048909;28;20041;-79
2023/06/05 10:16:26;;;;;;;4.95;3.35;;;;;;;;;;5041673;28;20072;-79
2023/06/05 10:18:52;;;;;;;5.47;3.72;;;;;;;;;;5040363;28;20128;-78
2023/06/05 10:21:18;;;;;;;5.88;4.15;;;;;;;;;;5029802;28;20419;-78
2023/06/05 10:24:03;;;;;;;5.28;4.13;;;;;;;;;;5028061;28;20045;-80
2023/06/05 10:26:38;;;;;;;5.22;4.22;;;;;;;;;;5026255;28;20067;-79
2023/06/05 10:29:13;;;;;;;4.90;3.75;;;;;;;;;;5028289;28;20053;-80
2023/06/05 10:31:48;;;;;;;5.03;4.15;;;;;;;;;;5032991;28;20545;-79
2023/06/05 10:34:49;;;;;;;8.65;4.40;;;;;;;;;;5033934;28;20042;-78
2023/06/05 10:37:24;;;;;;;5.38;3.78;;;;;;;;;;5023314;28;20095;-78
2023/06/05 10:39:50;;;;;;;4.63;3.85;;;;;;;;;;5032639;28;20049;-78
2023/06/05 10:42:43;;;;;;;4.47;3.30;;;;;;;;;;5032736;28;20558;-78
2023/06/05 10:45:10;;;;;;;3.95;3.10;;;;;;;;;;5029333;28;20056;-78
2023/06/05 10:47:36;;;;;;;4.00;2.53;;;;;;;;;;4999612;28;20548;-78
2023/06/05 10:50:19;;;;;;;4.57;2.45;;;;;;;;;;5032437;28;20136;-78
2023/06/05 10:52:49;;;;;;;3.38;2.45;;;;;;;;;;5016113;28;20088;-78
2023/06/05 10:55:16;;;;;;;3.22;2.70;;;;;;;;;;5032618;28;20384;-78
2023/06/05 10:58:00;;;;;;;4.68;3.05;;;;;;;;;;5016031;28;20389;-78
2023/06/05 11:00:30;;;;;;;4.15;3.50;;;;;;;;;;5032233;28;20038;-78
2023/06/05 11:02:56;;;;;;;4.78;3.38;;;;;;;;;;5032409;28;20033;-78
2023/06/05 11:05:23;;;;;;;5.03;3.42;;;;;;;;;;5032101;28;20054;-78
2023/06/05 11:08:09;;;;;;;4.13;3.33;;;;;;;;;;5032971;28;20092;-78
2023/06/05 11:10:35;;;;;;;6.18;3.97;;;;;;;;;;5018169;28;20061;-78
2023/06/05 11:13:02;;;;;;;5.95;4.25;;;;;;;;;;5034841;28;20045;-78
2023/06/05 11:15:31;;;;;;;5.18;3.72;;;;;;;;;;5039843;28;20041;-78
2023/06/05 11:17:58;;;;;;;5.88;4.07;;;;;;;;;;5017445;28;20377;-78
2023/06/05 11:20:25;;;;;;;5.30;4.35;;;;;;;;;;5034364;28;20049;-78
2023/06/05 11:22:54;;;;;;;5.07;4.20;;;;;;;;;;5027344;28;20103;-78
2023/06/05 11:25:30;;;;;;;5.93;4.22;;;;;;;;;;5033080;28;20132;-78
2023/06/05 11:28:10;;;;;;;6.28;4.25;;;;;;;;;;5039272;28;20038;-80
2023/06/05 11:30:40;;;;;;;6.13;4.68;;;;;;;;;;5015002;28;20376;-79
2023/06/05 11:33:08;;;;;;;6.95;5.40;;;;;;;;;;5032069;28;20484;-78
2023/06/05 11:35:35;;;;;;;7.07;4.88;;;;;;;;;;5035071;28;20049;-78
2023/06/05 11:38:14;;;;;;;8.43;5.15;;;;;;;;;;5040070;28;20084;-79
2023/06/05 11:40:40;;;;;;;7.57;5.40;;;;;;;;;;5029295;28;20045;-79
2023/06/05 11:43:08;;;;;;;7.10;5.22;;;;;;;;;;5030995;28;20081;-79
2023/06/05 11:45:35;;;;;;;6.40;5.00;;;;;;;;;;5034323;28;20459;-79
2023/06/05 11:48:05;;;;;;;6.25;5.35;;;;;;;;;;5032914;28;20507;-79
2023/06/05 11:50:31;;;;;;;6.47;5.20;;;;;;;;;;5033113;28;20060;-78
2023/06/05 11:53:11;;;;;;;6.82;5.13;;;;;;;;;;5021703;28;20132;-78
2023/06/05 11:55:53;;;;;;;7.03;4.95;;;;;;;;;;5014190;28;20476;-79
2023/06/05 11:58:30;;;;;;;6.88;5.07;;;;;;;;;;5013120;28;20045;-79
2023/06/05 12:01:22;;;;;;;8.32;5.75;;;;;;;;;;5014201;28;20117;-79
2023/06/05 12:03:49;;;;;;;7.90;5.10;;;;;;;;;;5048567;28;20087;-79
2023/06/05 12:06:17;;;;;;;7.45;5.65;;;;;;;;;;5053516;28;20442;-79
2023/06/05 12:08:44;;;;;;;7.47;5.47;;;;;;;;;;5052985;28;20053;-79
2023/06/05 12:11:20;;;;;;;9.32;5.60;;;;;;;;;;5056602;28;20061;-79
2023/06/05 12:13:47;;;;;;;6.85;5.22;;;;;;;;;;5040830;28;20041;-79
2023/06/05 12:16:13;;;;;;;6.75;5.45;;;;;;;;;;5036510;28;20045;-79
2023/06/05 12:18:40;;;;;;;8.48;5.47;;;;;;;;;;5034263;28;20045;-79
2023/06/05 12:21:06;;;;;;;6.07;4.47;;;;;;;;;;5032664;28;20056;-79
2023/06/05 12:23:32;;;;;;;6.90;5.15;;;;;;;;;;5032762;28;20410;-79
2023/06/05 12:26:03;;;;;;;7.18;5.38;;;;;;;;;;5031946;28;20057;-79
2023/06/05 12:28:29;;;;;;;6.90;4.82;;;;;;;;;;5013673;28;20058;-79
2023/06/05 12:30:56;;;;;;;6.18;5.00;;;;;;;;;;5020675;28;20049;-78
2023/06/05 12:33:24;;;;;;;7.57;5.03;;;;;;;;;;5033634;28;20068;-79
2023/06/05 12:36:10;;;;;;;7.65;4.88;;;;;;;;;;5032993;28;20438;-79
2023/06/05 12:38:42;;;;;;;8.25;5.20;;;;;;;;;;5033069;28;20047;-79
2023/06/05 12:41:08;;;;;;;6.15;4.88;;;;;;;;;;5023938;28;20488;-78
2023/06/05 12:43:38;;;;;;;6.80;4.35;;;;;;;;;;5011149;28;20084;-79
2023/06/05 12:46:05;;;;;;;8.20;5.30;;;;;;;;;;5013692;28;20046;-79
2023/06/05 12:48:31;;;;;;;8.07;5.82;;;;;;;;;;5013363;28;20045;-79
2023/06/05 12:50:58;;;;;;;7.80;5.40;;;;;;;;;;5019983;28;20472;-79
2023/06/05 12:53:25;;;;;;;6.45;4.90;;;;;;;;;;5032833;28;20056;-79
2023/06/05 12:55:51;;;;;;;7.70;4.80;;;;;;;;;;5031602;28;20054;-79
2023/06/05 12:58:18;;;;;;;6.78;4.60;;;;;;;;;;5032777;28;20068;-79
2023/06/05 13:00:44;;;;;;;7.70;5.07;;;;;;;;;;5032575;28;20099;-79
2023/06/05 13:03:12;;;;;;;6.13;4.50;;;;;;;;;;5031263;28;20056;-79
2023/06/05 13:05:38;;;;;;;7.10;4.50;;;;;;;;;;5032874;28;20054;-79
2023/06/05 13:08:04;;;;;;;7.53;5.00;;;;;;;;;;5031591;28;20049;-79
2023/06/05 13:10:30;;;;;;;5.75;4.45;;;;;;;;;;5032082;28;20049;-79
2023/06/05 13:12:56;;;;;;;7.25;4.40;;;;;;;;;;5032988;28;20049;-79
2023/06/05 13:15:22;;;;;;;7.53;4.30;;;;;;;;;;5032696;28;20038;-79
2023/06/05 13:17:49;;;;;;;5.45;4.78;;;;;;;;;;5024413;28;20045;-79
2023/06/05 13:20:15;;;;;;;5.50;3.63;;;;;;;;;;5013035;28;20165;-79
2023/06/05 13:22:42;;;;;;;4.82;4.00;;;;;;;;;;5013255;28;20042;-79
2023/06/05 13:25:08;;;;;;;7.40;4.70;;;;;;;;;;5012748;28;20476;-79
2023/06/05 13:27:35;;;;;;;5.30;4.35;;;;;;;;;;5012975;28;20053;-79
2023/06/05 13:30:03;;;;;;;6.07;4.28;;;;;;;;;;5012875;28;20046;-79
2023/06/05 13:32:31;;;;;;;5.25;4.03;;;;;;;;;;5030181;28;20128;-79
2023/06/05 13:34:57;;;;;;;6.80;5.25;;;;;;;;;;5041834;28;20060;-79
2023/06/05 13:37:23;;;;;;;5.47;4.13;;;;;;;;;;5052251;28;20052;-79
2023/06/05 13:39:49;;;;;;;5.90;4.50;;;;;;;;;;5052327;28;20059;-79
2023/06/05 13:42:16;;;;;;;5.60;4.70;;;;;;;;;;5035142;28;20049;-78
2023/06/05 13:44:42;;;;;;;5.20;4.47;;;;;;;;;;5032259;28;20054;-79
2023/06/05 13:47:09;;;;;;;7.20;4.40;;;;;;;;;;5032567;28;20468;-79
2023/06/05 13:49:35;;;;;;;9.57;4.30;;;;;;;;;;5032777;28;20095;-79
2023/06/05 13:52:01;;;;;;;6.95;4.65;;;;;;;;;;5044451;28;20102;-79
2023/06/05 13:54:27;;;;;;;7.63;5.20;;;;;;;;;;5036756;28;20239;-79
2023/06/05 13:56:53;;;;;;;4.93;3.80;;;;;;;;;;5035997;28;20077;-79
2023/06/05 13:59:19;;;;;;;5.68;4.63;;;;;;;;;;5036035;28;20084;-79
2023/06/05 14:01:45;;;;;;;6.10;4.80;;;;;;;;;;5023323;28;20046;-79
2023/06/05 14:04:11;;;;;;;6.47;4.35;;;;;;;;;;5014463;28;20092;-79
2023/06/05 14:06:39;;;;;;;6.18;4.68;;;;;;;;;;5014837;28;20045;-79
2023/06/05 14:09:05;;;;;;;6.20;4.30;;;;;;;;;;5015672;28;20050;-78
2023/06/05 14:11:31;;;;;;;5.70;4.22;;;;;;;;;;5015490;28;20054;-79
2023/06/05 14:13:58;;;;;;;5.13;4.32;;;;;;;;;;5015505;28;20046;-78
2023/06/05 14:16:25;;;;;;;5.57;3.67;;;;;;;;;;5014309;28;20454;-79
2023/06/05 14:18:51;;;;;;;7.88;4.30;;;;;;;;;;5015876;28;20052;-79
2023/06/05 14:21:17;;;;;;;6.95;4.38;;;;;;;;;;5020964;28;20495;-79
2023/06/05 14:23:43;;;;;;;6.57;4.85;;;;;;;;;;5035288;28;20058;-79
2023/06/05 14:26:10;;;;;;;7.88;5.20;;;;;;;;;;5035510;28;20107;-79
2023/06/05 14:28:36;;;;;;;5.45;4.40;;;;;;;;;;5033992;28;20054;-79
2023/06/05 14:31:02;;;;;;;6.15;4.60;;;;;;;;;;5035385;28;20046;-79
2023/06/05 14:33:28;;;;;;;6.20;4.35;;;;;;;;;;5035156;28;20150;-79
2023/06/05 14:35:55;;;;;;;6.85;4.78;;;;;;;;;;5033703;28;20049;-79
2023/06/05 14:38:21;;;;;;;7.32;4.72;;;;;;;;;;5035254;28;20507;-79
2023/06/05 14:40:50;;;;;;;6.63;4.20;;;;;;;;;;5035131;28;20038;-79
2023/06/05 14:43:16;;;;;;;5.97;4.50;;;;;;;;;;5035343;28;20084;-79
2023/06/05 14:45:42;;;;;;;7.05;4.35;;;;;;;;;;5035002;28;20049;-79
2023/06/05 14:48:12;;;;;;;5.85;4.32;;;;;;;;;;5033804;28;20050;-78